Time;durP1;ratioP1;P1;durP2;ratioP2;P2;SDS_P1;SDS_P2;PMS_P1;PMS_P2;Temp;Humidity;BMP_temperature;BMP_pressure;BME280_temperature;BME280_humidity;BME280_pressure;Samples;Min_cycle;Max_cycle;Signal;HPM_P1;HPM_P2
2023/03/22 00:01:24;;;;;;;31.23;27.90;;;15.50;81.40;;;;;;10863575;32;20256;-73
2023/03/22 00:07:26;;;;;;;24.98;21.10;;;15.50;81.70;;;;;;10859204;32;20027;-73
2023/03/22 00:13:29;;;;;;;22.83;19.70;;;15.50;81.50;;;;;;10848534;32;20405;-73
2023/03/22 00:19:32;;;;;;;19.55;15.93;;;15.40;81.70;;;;;;10848380;32;20065;-73
2023/03/22 00:25:34;;;;;;;17.20;13.55;;;15.30;81.70;;;;;;10862440;32;20015;-73
2023/03/22 00:31:37;;;;;;;19.55;16.65;;;15.30;81.80;;;;;;10861594;32;20027;-73
2023/03/22 00:37:40;;;;;;;27.75;24.45;;;15.30;81.80;;;;;;10783996;33;20418;-73
2023/03/22 00:43:44;;;;;;;20.67;16.17;;;15.20;82.00;;;;;;10787928;33;20394;-73
2023/03/22 00:49:46;;;;;;;16.77;15.07;;;15.30;81.90;;;;;;10784555;33;20024;-73
2023/03/22 00:55:49;;;;;;;19.45;16.73;;;15.30;81.90;;;;;;10787204;33;20343;-72
2023/03/22 01:01:51;;;;;;;14.38;12.13;;;15.30;81.90;;;;;;10787226;33;20021;-73
2023/03/22 01:07:54;;;;;;;16.42;13.10;;;15.20;82.00;;;;;;10783491;33;20016;-72
2023/03/22 01:13:56;;;;;;;18.62;12.30;;;15.00;82.20;;;;;;10775626;33;20028;-73
2023/03/22 01:19:59;;;;;;;18.87;14.48;;;15.00;82.50;;;;;;10792613;33;20028;-72
2023/03/22 01:26:02;;;;;;;20.27;16.23;;;15.10;82.30;;;;;;10792991;33;20054;-72
2023/03/22 01:32:04;;;;;;;25.40;20.42;;;15.20;82.10;;;;;;10776413;32;20032;-72
2023/03/22 01:38:06;;;;;;;17.98;15.50;;;15.20;82.10;;;;;;10792612;33;20036;-75
2023/03/22 01:44:20;;;;;;;19.05;16.12;;;15.20;82.00;;;;;;10792465;33;20047;-75
2023/03/22 01:50:24;;;;;;;19.27;16.50;;;15.20;81.90;;;;;;10791195;33;20059;-72
2023/03/22 01:56:31;;;;;;;18.08;15.90;;;15.20;81.90;;;;;;10780839;33;20021;-72
2023/03/22 02:02:33;;;;;;;22.48;19.35;;;15.20;82.10;;;;;;10792577;33;20016;-72
2023/03/22 02:08:36;;;;;;;24.50;21.98;;;15.20;82.50;;;;;;10789623;33;20354;-72
2023/03/22 02:15:06;;;;;;;27.92;23.83;;;15.20;82.60;;;;;;10779051;32;20330;-72
2023/03/22 02:21:40;;;;;;;24.75;22.15;;;15.30;82.40;;;;;;10608038;33;20049;-72
2023/03/22 02:28:02;;;;;;;19.95;16.55;;;15.30;82.60;;;;;;10591963;33;20030;-72
2023/03/22 02:34:14;;;;;;;24.42;21.83;;;15.20;83.20;;;;;;10606256;33;20045;-75
2023/03/22 02:40:51;;;;;;;28.10;24.98;;;15.10;83.20;;;;;;10603938;33;20033;-75
2023/03/22 02:47:05;;;;;;;24.27;20.88;;;15.00;82.90;;;;;;10569407;33;20026;-74
2023/03/22 02:53:25;;;;;;;25.75;22.73;;;15.00;82.90;;;;;;10568593;33;20332;-75
2023/03/22 02:59:30;;;;;;;27.40;21.20;;;15.00;83.30;;;;;;10641554;33;20030;-75
2023/03/22 03:05:33;;;;;;;24.92;22.27;;;15.00;83.40;;;;;;10642660;33;20029;-72
2023/03/22 03:11:35;;;;;;;30.00;26.40;;;15.00;83.30;;;;;;10642247;33;20050;-72
2023/03/22 03:17:37;;;;;;;18.52;16.23;;;15.00;83.40;;;;;;10638202;33;20064;-72
2023/03/22 03:23:54;;;;;;;27.87;23.48;;;15.00;83.30;;;;;;10771752;33;20059;-73
2023/03/22 03:30:13;;;;;;;25.27;22.58;;;15.00;83.10;;;;;;10776442;33;20043;-75
2023/03/22 03:36:19;;;;;;;18.05;15.73;;;15.00;83.10;;;;;;10776070;33;20039;-75
2023/03/22 03:42:26;;;;;;;28.05;22.92;;;15.00;83.10;;;;;;10772379;33;20066;-75
2023/03/22 03:48:33;;;;;;;24.02;21.08;;;14.80;83.00;;;;;;10785034;33;20017;-75
2023/03/22 03:54:35;;;;;;;28.15;24.67;;;14.80;82.80;;;;;;10789306;33;20032;-75
2023/03/22 04:00:38;;;;;;;22.67;16.05;;;14.80;82.70;;;;;;10772555;33;20064;-75
2023/03/22 04:06:44;;;;;;;17.60;14.80;;;14.80;82.70;;;;;;10788401;33;20017;-74
2023/03/22 04:12:47;;;;;;;29.48;26.30;;;14.80;82.80;;;;;;10787070;33;20038;-75
2023/03/22 04:18:50;;;;;;;27.70;21.92;;;14.70;83.00;;;;;;10775160;33;20055;-72
2023/03/22 04:24:52;;;;;;;21.73;17.35;;;14.60;83.30;;;;;;10788668;33;20012;-72
2023/03/22 04:30:56;;;;;;;17.20;15.38;;;14.50;83.30;;;;;;10786918;33;20025;-72
2023/03/22 04:37:04;;;;;;;21.42;18.55;;;14.50;83.20;;;;;;10787861;33;20111;-72
2023/03/22 04:43:08;;;;;;;16.25;14.23;;;14.40;83.20;;;;;;10787239;33;20055;-72
2023/03/22 04:49:11;;;;;;;15.13;12.68;;;14.40;83.10;;;;;;10775909;33;20058;-73
2023/03/22 04:55:13;;;;;;;18.60;14.80;;;14.40;82.90;;;;;;10794351;33;20059;-72
2023/03/22 05:01:18;;;;;;;22.67;19.15;;;14.40;82.80;;;;;;10794350;33;20051;-73
2023/03/22 05:07:21;;;;;;;17.23;14.55;;;14.50;82.50;;;;;;10777266;33;20050;-72
2023/03/22 05:13:26;;;;;;;27.90;22.65;;;14.50;82.30;;;;;;10794132;33;20425;-75
2023/03/22 05:19:29;;;;;;;21.87;17.73;;;14.60;82.10;;;;;;10778697;33;20071;-75
2023/03/22 05:25:32;;;;;;;24.42;16.45;;;14.70;81.90;;;;;;10792956;33;20031;-75
2023/03/22 05:31:36;;;;;;;20.50;17.85;;;14.60;81.90;;;;;;10779337;33;20054;-75
2023/03/22 05:37:38;;;;;;;19.40;17.33;;;14.50;81.90;;;;;;10779555;33;20029;-75
2023/03/22 05:43:41;;;;;;;30.12;25.23;;;14.60;81.80;;;;;;10791158;33;20024;-75
2023/03/22 05:49:45;;;;;;;24.15;21.65;;;14.70;81.90;;;;;;10775619;33;20032;-74
2023/03/22 05:55:48;;;;;;;20.08;16.17;;;14.90;82.00;;;;;;10792094;33;20050;-75
2023/03/22 06:01:50;;;;;;;23.05;19.80;;;14.90;81.70;;;;;;10791686;33;20043;-75
2023/03/22 06:07:53;;;;;;;17.85;15.70;;;14.90;81.90;;;;;;10778256;32;20047;-75
2023/03/22 06:13:56;;;;;;;18.83;15.82;;;15.00;81.60;;;;;;10767325;33;20067;-75
2023/03/22 06:19:59;;;;;;;15.43;12.80;;;15.00;81.70;;;;;;10791121;33;20078;-75
2023/03/22 06:26:01;;;;;;;18.80;16.83;;;14.90;82.00;;;;;;10778928;33;20319;-75
2023/03/22 06:32:05;;;;;;;15.63;13.93;;;14.70;82.60;;;;;;10766398;32;20032;-75
2023/03/22 06:38:08;;;;;;;22.70;18.90;;;14.60;82.90;;;;;;10789269;33;20020;-74
2023/03/22 06:44:11;;;;;;;20.15;16.73;;;14.60;83.40;;;;;;10778098;33;20038;-74
2023/03/22 06:50:15;;;;;;;29.60;26.58;;;15.00;83.20;;;;;;10775547;33;20020;-74
2023/03/22 06:56:22;;;;;;;30.73;27.40;;;15.40;82.90;;;;;;10778921;32;20315;-74
2023/03/22 07:02:25;;;;;;;29.75;26.58;;;15.70;82.90;;;;;;10826897;32;20414;-74
2023/03/22 07:08:29;;;;;;;31.08;27.73;;;15.80;82.90;;;;;;10790435;33;20441;-75
2023/03/22 07:14:33;;;;;;;22.87;17.80;;;15.90;83.20;;;;;;10789900;33;20059;-75
2023/03/22 07:20:37;;;;;;;26.25;23.40;;;15.90;83.30;;;;;;10840574;32;20454;-75
2023/03/22 07:26:40;;;;;;;28.00;24.95;;;15.90;83.50;;;;;;10982762;32;20054;-75
2023/03/22 07:32:43;;;;;;;28.12;23.77;;;16.10;83.70;;;;;;10967546;32;20031;-73
2023/03/22 07:38:45;;;;;;;32.03;28.58;;;16.30;83.70;;;;;;10980273;32;20023;-72
2023/03/22 07:44:49;;;;;;;26.48;22.33;;;16.30;83.80;;;;;;10980955;32;20022;-73
2023/03/22 07:50:55;;;;;;;26.92;22.85;;;16.30;84.10;;;;;;10979850;32;20054;-73
2023/03/22 07:56:58;;;;;;;26.37;21.77;;;16.50;84.30;;;;;;10966353;32;20042;-75
2023/03/22 08:03:01;;;;;;;27.27;22.65;;;16.50;84.50;;;;;;10977325;32;20035;-75
2023/03/22 08:09:07;;;;;;;27.25;22.15;;;16.80;84.40;;;;;;10977294;32;20049;-75
2023/03/22 08:15:10;;;;;;;29.23;24.02;;;16.60;84.20;;;;;;10965854;32;20074;-75
2023/03/22 08:21:12;;;;;;;25.10;19.95;;;16.40;84.60;;;;;;10977052;32;20026;-72
2023/03/22 08:27:17;;;;;;;28.38;23.92;;;16.30;84.80;;;;;;10980188;32;20107;-75
2023/03/22 08:33:22;;;;;;;31.85;28.67;;;16.50;85.20;;;;;;10697608;27;7088064;-75
2023/03/22 08:39:24;;;;;;;28.92;25.20;;;16.70;85.40;;;;;;10737658;33;20044;-75
2023/03/22 08:45:28;;;;;;;30.25;24.05;;;16.90;85.20;;;;;;10725758;33;20037;-75
2023/03/22 08:51:31;;;;;;;42.03;35.67;;;16.90;85.20;;;;;;10748392;33;20351;-75
2023/03/22 08:57:34;;;;;;;30.17;26.52;;;16.90;85.00;;;;;;10738759;32;20040;-75
2023/03/22 09:03:39;;;;;;;39.03;30.17;;;17.00;85.10;;;;;;10733794;33;20043;-75
2023/03/22 09:09:42;;;;;;;32.45;25.92;;;17.00;85.00;;;;;;10735612;33;20033;-75
2023/03/22 09:15:45;;;;;;;27.33;23.10;;;16.90;84.20;;;;;;10748794;33;20055;-74
2023/03/22 09:21:48;;;;;;;28.83;25.37;;;16.90;84.50;;;;;;10747366;33;20021;-74
2023/03/22 09:27:51;;;;;;;23.85;20.35;;;17.00;83.90;;;;;;10733804;32;20052;-75
2023/03/22 09:33:54;;;;;;;34.53;30.08;;;17.10;83.00;;;;;;10720753;33;20041;-75
2023/03/22 09:39:57;;;;;;;30.25;25.45;;;17.20;83.40;;;;;;10754366;33;20029;-75
2023/03/22 09:46:00;;;;;;;38.58;32.63;;;17.30;82.60;;;;;;10754361;33;20308;-74
2023/03/22 09:52:09;;;;;;;25.88;22.48;;;17.30;81.60;;;;;;10757022;33;20334;-74
2023/03/22 09:58:24;;;;;;;31.50;24.70;;;17.30;81.90;;;;;;10752972;33;20032;-73
2023/03/22 10:04:41;;;;;;;21.02;15.10;;;17.50;81.40;;;;;;10738630;33;20055;-72
2023/03/22 10:10:44;;;;;;;29.60;26.40;;;17.60;80.20;;;;;;10756069;33;20307;-74
2023/03/22 10:16:47;;;;;;;25.12;17.20;;;17.70;80.40;;;;;;10755746;33;20051;-74
2023/03/22 10:22:52;;;;;;;25.45;22.75;;;17.80;79.70;;;;;;10752796;33;20469;-74
2023/03/22 10:29:20;;;;;;;19.98;14.98;;;18.10;78.90;;;;;;10751351;33;20047;-74
2023/03/22 10:35:23;;;;;;;29.37;24.23;;;18.20;78.20;;;;;;10568374;33;20033;-73
2023/03/22 10:41:27;;;;;;;21.62;18.75;;;18.30;78.00;;;;;;10569998;33;20030;-74
2023/03/22 10:47:41;;;;;;;26.58;22.60;;;18.50;76.70;;;;;;10571409;33;20472;-74
2023/03/22 10:53:47;;;;;;;25.42;21.02;;;18.60;75.70;;;;;;10569028;33;20022;-75
2023/03/22 10:59:51;;;;;;;19.45;16.42;;;18.90;75.40;;;;;;10570147;33;20416;-75
2023/03/22 11:06:13;;;;;;;19.35;15.55;;;19.30;74.70;;;;;;10567904;33;20026;-73
2023/03/22 11:12:16;;;;;;;23.25;20.90;;;19.50;74.20;;;;;;10713526;33;20028;-74
2023/03/22 11:18:19;;;;;;;16.10;12.50;;;19.80;71.70;;;;;;10752262;33;20029;-72
2023/03/22 11:24:28;;;;;;;12.30;9.82;;;20.00;73.60;;;;;;10751468;33;20055;-74
2023/03/22 11:30:32;;;;;;;13.52;10.05;;;20.30;72.70;;;;;;10739931;33;20433;-74
2023/03/22 11:36:44;;;;;;;11.60;9.25;;;20.50;71.80;;;;;;10727066;33;20036;-74
2023/03/22 11:42:51;;;;;;;8.27;5.90;;;20.70;71.40;;;;;;10727194;33;20051;-74
2023/03/22 11:48:59;;;;;;;8.18;5.93;;;20.90;69.50;;;;;;10751109;33;20063;-74
2023/03/22 11:55:03;;;;;;;6.60;4.95;;;21.00;68.10;;;;;;10741113;33;20024;-74
2023/03/22 12:01:06;;;;;;;8.90;5.80;;;21.30;67.80;;;;;;10747892;33;20055;-75
2023/03/22 12:07:18;;;;;;;10.93;7.20;;;21.40;66.50;;;;;;10750121;33;20047;-74
2023/03/22 12:13:34;;;;;;;12.10;7.28;;;21.40;66.00;;;;;;10733820;33;20307;-74
2023/03/22 12:19:51;;;;;;;15.13;8.85;;;21.50;67.00;;;;;;10750647;33;20051;-74
2023/03/22 12:26:11;;;;;;;10.38;7.75;;;21.60;67.30;;;;;;10750424;33;20028;-74
2023/03/22 12:32:29;;;;;;;10.60;7.43;;;21.70;65.40;;;;;;10734721;33;20067;-74
2023/03/22 12:38:32;;;;;;;13.57;10.90;;;21.60;63.90;;;;;;10751611;33;20056;-73
2023/03/22 12:44:42;;;;;;;14.07;9.63;;;21.70;66.00;;;;;;10749225;33;20358;-74
2023/03/22 12:50:57;;;;;;;9.85;6.87;;;21.80;64.30;;;;;;10748692;33;20029;-75
2023/03/22 12:57:40;;;;;;;8.70;5.87;;;21.80;63.30;;;;;;10733477;33;20338;-74
2023/03/22 13:03:51;;;;;;;7.87;5.82;;;22.00;63.60;;;;;;10749613;33;20055;-73
2023/03/22 13:09:53;;;;;;;12.02;8.05;;;22.10;62.20;;;;;;10736884;33;20025;-73
2023/03/22 13:15:55;;;;;;;7.25;5.15;;;21.90;60.70;;;;;;10740169;32;20040;-73
2023/03/22 13:22:47;;;;;;;10.68;6.12;;;21.80;58.50;;;;;;10740202;33;20059;-72
2023/03/22 13:29:00;;;;;;;6.97;5.15;;;21.90;59.60;;;;;;10792214;33;20051;-74
2023/03/22 13:35:03;;;;;;;6.05;3.97;;;22.30;60.00;;;;;;10793640;33;20063;-74
2023/03/22 13:41:28;;;;;;;7.68;4.93;;;22.50;59.50;;;;;;10790230;33;20051;-74
2023/03/22 13:47:43;;;;;;;12.52;3.72;;;22.60;59.40;;;;;;10792839;33;20020;-74
2023/03/22 13:53:54;;;;;;;8.30;5.28;;;22.70;58.30;;;;;;10794913;33;20055;-74
2023/03/22 14:00:09;;;;;;;6.93;4.47;;;22.60;57.10;;;;;;10791344;33;20322;-74
2023/03/22 14:06:42;;;;;;;7.30;4.32;;;22.70;57.40;;;;;;10757110;33;20013;-75
2023/03/22 14:12:49;;;;;;;7.68;4.68;;;22.90;57.30;;;;;;10742368;33;20366;-74
2023/03/22 14:18:52;;;;;;;17.20;12.10;;;22.90;57.40;;;;;;10752400;33;20020;-75
2023/03/22 14:24:56;;;;;;;15.00;13.10;;;23.00;58.80;;;;;;10751984;33;20323;-74
2023/03/22 14:30:58;;;;;;;12.85;11.00;;;23.00;61.60;;;;;;10865610;32;20046;-73
2023/03/22 14:37:03;;;;;;;24.42;17.05;;;22.80;61.80;;;;;;10881127;32;20053;-73
2023/03/22 14:43:19;;;;;;;16.05;14.15;;;22.80;66.30;;;;;;10891850;32;20315;-73
2023/03/22 14:49:21;;;;;;;18.37;15.38;;;22.80;65.00;;;;;;10890432;32;20015;-73
2023/03/22 14:55:26;;;;;;;20.83;15.88;;;22.80;65.90;;;;;;10905103;32;20062;-75
2023/03/22 15:02:00;;;;;;;20.77;18.60;;;22.80;67.70;;;;;;10890214;32;20334;-75
2023/03/22 15:08:08;;;;;;;13.85;12.27;;;22.80;67.60;;;;;;10906723;32;20061;-75
2023/03/22 15:14:12;;;;;;;20.70;14.80;;;22.80;69.60;;;;;;10904148;32;20384;-75
2023/03/22 15:20:22;;;;;;;13.62;11.85;;;22.80;70.40;;;;;;10904352;32;20031;-75
2023/03/22 15:54:29;;;;;;;17.45;14.38;;;23.50;71.40;;;;;;10842632;32;7273698;-73
2023/03/22 16:00:40;;;;;;;14.95;10.20;;;23.50;72.20;;;;;;11037801;32;20018;-73
2023/03/22 16:06:42;;;;;;;11.38;9.48;;;23.70;72.90;;;;;;11049499;32;20045;-74
2023/03/22 16:12:45;;;;;;;12.45;10.02;;;24.10;72.10;;;;;;11050486;32;20040;-74
2023/03/22 16:18:48;;;;;;;11.50;10.25;;;24.50;71.00;;;;;;11050463;32;20048;-73
2023/03/22 16:24:50;;;;;;;11.35;8.25;;;24.70;69.90;;;;;;11050821;32;20382;-74
2023/03/22 16:30:52;;;;;;;7.53;4.95;;;25.00;70.30;;;;;;11023528;32;20038;-74
2023/03/22 16:36:56;;;;;;;10.20;7.22;;;25.20;70.20;;;;;;11039249;32;20024;-73
2023/03/22 16:42:59;;;;;;;10.82;7.75;;;24.90;70.00;;;;;;11024260;32;20064;-74
2023/03/22 16:49:02;;;;;;;10.05;5.95;;;23.70;70.30;;;;;;11001212;32;20332;-73
2023/03/22 16:55:16;;;;;;;11.20;6.78;;;23.10;71.30;;;;;;11001176;32;20026;-74
2023/03/22 17:01:20;;;;;;;13.10;6.62;;;22.70;71.30;;;;;;11026463;32;20074;-74
2023/03/22 17:07:26;;;;;;;10.23;9.10;;;22.20;71.50;;;;;;11022801;32;20018;-73
2023/03/22 17:13:28;;;;;;;9.30;5.45;;;21.70;71.80;;;;;;11014328;32;20426;-74
2023/03/22 17:19:30;;;;;;;5.68;4.07;;;21.20;72.20;;;;;;11018818;32;20049;-74
2023/03/22 17:25:35;;;;;;;10.02;6.12;;;20.80;73.00;;;;;;11022168;32;20010;-74
2023/03/22 17:31:37;;;;;;;8.20;6.30;;;20.60;73.10;;;;;;11022096;32;20319;-74
2023/03/22 17:37:39;;;;;;;11.52;8.77;;;20.30;73.80;;;;;;11021992;32;20065;-74
2023/03/22 17:43:42;;;;;;;11.95;8.15;;;20.10;74.80;;;;;;11022261;32;20296;-74
2023/03/22 17:49:44;;;;;;;9.55;8.55;;;20.00;75.40;;;;;;11021201;32;20063;-74
2023/03/22 17:55:46;;;;;;;11.20;7.90;;;19.90;76.30;;;;;;11021954;32;20347;-74
2023/03/22 18:01:49;;;;;;;11.20;8.48;;;19.90;76.70;;;;;;11021266;32;20007;-73
2023/03/22 18:07:52;;;;;;;10.15;8.30;;;19.80;77.10;;;;;;11021084;32;20018;-74
2023/03/22 18:13:54;;;;;;;13.55;7.07;;;19.80;77.00;;;;;;11020480;32;20022;-73
2023/03/22 18:19:57;;;;;;;13.52;7.72;;;19.80;77.00;;;;;;11006897;32;20045;-73
2023/03/22 18:26:01;;;;;;;10.32;8.85;;;19.70;77.20;;;;;;11021635;32;20030;-72
2023/03/22 18:32:04;;;;;;;8.07;6.62;;;19.60;77.30;;;;;;11021125;32;20027;-72
2023/03/22 18:38:08;;;;;;;10.15;7.10;;;19.50;77.50;;;;;;11006233;32;20045;-72
2023/03/22 18:44:10;;;;;;;9.30;7.25;;;19.40;77.80;;;;;;11007508;32;20052;-72
2023/03/22 18:50:14;;;;;;;8.88;5.25;;;19.30;78.00;;;;;;11018385;32;20411;-72
2023/03/22 18:56:16;;;;;;;8.73;6.25;;;19.30;77.90;;;;;;11005668;32;20026;-73
2023/03/22 19:02:18;;;;;;;7.45;5.60;;;19.20;78.00;;;;;;11019764;32;20383;-72
2023/03/22 19:08:21;;;;;;;9.00;6.55;;;19.00;78.50;;;;;;11018944;32;20018;-72
2023/03/22 19:14:24;;;;;;;7.90;5.87;;;19.00;78.80;;;;;;11018441;32;20018;-72
2023/03/22 19:20:26;;;;;;;10.02;6.65;;;18.90;78.90;;;;;;11019049;32;20023;-72
2023/03/22 19:26:28;;;;;;;9.50;6.30;;;18.80;78.80;;;;;;11018049;32;20023;-72
2023/03/22 19:32:30;;;;;;;7.95;5.87;;;18.80;78.90;;;;;;10991057;32;20363;-72
2023/03/22 19:38:33;;;;;;;10.32;7.50;;;18.80;79.00;;;;;;11018817;32;20019;-72
2023/03/22 19:44:35;;;;;;;10.23;8.52;;;18.80;79.00;;;;;;11018626;32;20028;-75
2023/03/22 19:50:38;;;;;;;9.50;6.68;;;18.70;79.00;;;;;;11003742;32;20022;-72
2023/03/22 19:56:41;;;;;;;10.30;8.20;;;18.60;79.10;;;;;;11016832;32;20026;-73
2023/03/22 20:02:44;;;;;;;10.60;8.38;;;18.30;79.40;;;;;;11017028;32;20015;-73
2023/03/22 20:08:46;;;;;;;12.10;9.93;;;18.20;79.60;;;;;;11018156;32;20383;-73
2023/03/22 20:14:48;;;;;;;10.20;7.90;;;18.00;79.80;;;;;;11002369;32;20320;-74
2023/03/22 20:20:52;;;;;;;13.00;10.05;;;17.90;79.80;;;;;;11004302;32;20030;-74
2023/03/22 20:26:54;;;;;;;11.98;9.80;;;17.80;79.90;;;;;;11005856;32;20053;-74
2023/03/22 20:32:56;;;;;;;14.15;11.57;;;17.60;79.90;;;;;;11003970;32;20030;-73
2023/03/22 20:39:04;;;;;;;12.75;9.30;;;17.60;79.90;;;;;;11021921;32;20018;-74
2023/03/22 20:45:07;;;;;;;14.50;11.77;;;17.50;79.90;;;;;;11024093;32;20022;-73
2023/03/22 20:51:09;;;;;;;12.85;10.45;;;17.50;79.90;;;;;;11023400;32;20026;-74
2023/03/22 20:57:12;;;;;;;13.88;10.55;;;17.60;79.60;;;;;;11009806;32;20030;-73
2023/03/22 21:03:15;;;;;;;14.90;11.98;;;17.80;79.50;;;;;;11023851;32;20048;-74
2023/03/22 21:09:18;;;;;;;18.20;10.15;;;17.80;79.30;;;;;;11023927;32;20288;-73
2023/03/22 21:15:20;;;;;;;13.93;11.93;;;17.80;79.20;;;;;;11012568;32;20388;-74
2023/03/22 21:21:23;;;;;;;19.37;14.63;;;17.80;79.50;;;;;;10984642;32;20023;-73
2023/03/22 21:27:28;;;;;;;15.43;12.73;;;17.80;80.10;;;;;;10985110;32;20054;-74
2023/03/22 21:33:31;;;;;;;15.57;13.13;;;17.80;80.00;;;;;;10970082;32;20057;-74
2023/03/22 21:39:34;;;;;;;16.08;14.32;;;17.60;80.00;;;;;;10984673;32;20015;-74
2023/03/22 21:45:36;;;;;;;13.18;11.82;;;17.70;80.30;;;;;;10982349;32;20042;-74
2023/03/22 21:51:39;;;;;;;15.27;13.35;;;17.50;80.00;;;;;;10983469;32;20335;-73
2023/03/22 21:57:41;;;;;;;17.83;14.07;;;17.40;79.90;;;;;;10983323;32;20018;-73
2023/03/22 22:03:43;;;;;;;13.93;11.60;;;17.40;80.00;;;;;;10981766;32;20323;-73
2023/03/22 22:09:46;;;;;;;15.63;14.02;;;17.30;80.10;;;;;;10982870;32;20057;-73
2023/03/22 22:15:53;;;;;;;13.98;12.50;;;17.10;80.30;;;;;;10983334;32;20328;-73
2023/03/22 22:21:55;;;;;;;14.85;12.93;;;17.00;80.30;;;;;;10968350;32;20026;-73
2023/03/22 22:27:57;;;;;;;15.40;11.73;;;16.90;80.30;;;;;;10980039;32;20351;-73
2023/03/22 22:34:00;;;;;;;13.93;12.37;;;16.90;79.90;;;;;;10982013;32;20038;-73
2023/03/22 22:40:09;;;;;;;14.13;12.13;;;16.80;79.80;;;;;;10981795;32;20037;-73
2023/03/22 22:46:12;;;;;;;16.10;13.98;;;16.80;79.90;;;;;;10979982;32;20057;-73
2023/03/22 22:52:15;;;;;;;19.20;17.20;;;16.80;79.60;;;;;;10981447;32;20042;-73
2023/03/22 22:58:17;;;;;;;17.77;13.40;;;16.80;79.50;;;;;;10976406;32;20050;-73
2023/03/22 23:04:19;;;;;;;13.93;12.37;;;16.70;79.60;;;;;;10980755;32;20019;-73
2023/03/22 23:10:21;;;;;;;18.20;15.05;;;16.50;79.80;;;;;;10980719;32;20038;-73
2023/03/22 23:16:45;;;;;;;17.23;13.95;;;16.20;80.30;;;;;;10978501;32;20061;-73
2023/03/22 23:22:48;;;;;;;20.92;16.62;;;16.40;80.30;;;;;;10979070;32;20026;-73
2023/03/22 23:28:53;;;;;;;20.83;16.85;;;16.40;80.10;;;;;;10978713;32;20438;-73
2023/03/22 23:34:56;;;;;;;21.08;15.43;;;16.50;79.80;;;;;;10980025;32;20068;-73
2023/03/22 23:40:58;;;;;;;17.27;13.07;;;16.60;79.70;;;;;;10979957;32;20042;-73
2023/03/22 23:47:00;;;;;;;15.48;13.73;;;16.60;79.60;;;;;;10979241;32;20050;-72
2023/03/22 23:53:03;;;;;;;14.43;12.90;;;16.50;79.60;;;;;;10858716;27;20413;-73
2023/03/22 23:59:06;;;;;;;16.27;13.40;;;16.40;79.60;;;;;;10825236;33;20008;-73
